Terminal Aerodrome Forecast
Issued by NWS

Home | Current Version | Previous Version | Graphics & Text | Print | Product List | Glossary On
Versions: 1 2 3 4 5 6 7 8 9 10 11 12 13 14 15 16 17 18 19 20 21 22 23 24 25 26 27 28 29 30 31 32 33 34 35 36 37
391
FTUS43 KGRB 222320
TAFRHI
TAF
KRHI 222320Z 2300/2324 16005KT P6SM BKN200
     FM230600 16007KT P6SM BKN100
     FM231100 16009KT 6SM -SN OVC045
     FM231500 17012G19KT P6SM OVC070
     FM232200 17010G17KT P6SM VCSH OVC035=

USA.gov is the U.S. government's official web portal to all federal, state and local government web resources and services.